Time;durP1;ratioP1;P1;durP2;ratioP2;P2;SDS_P1;SDS_P2;PMS_P1;PMS_P2;Temp;Humidity;BMP_temperature;BMP_pressure;BME280_temperature;BME280_humidity;BME280_pressure;Samples;Min_cycle;Max_cycle;Signal;HPM_P1;HPM_P2
2024/04/16 00:02:21;;;;;;;;;;;5.20;99.90;;;;;;5447650;26;19936;-65
2024/04/16 00:04:47;;;;;;;;;;;5.20;99.90;;;;;;5459151;26;19929;-65
2024/04/16 00:07:14;;;;;;;;;;;5.30;99.90;;;;;;5444877;26;19929;-65
2024/04/16 00:09:41;;;;;;;;;;;5.30;99.90;;;;;;5447515;26;19929;-65
2024/04/16 00:12:13;;;;;;;;;;;5.30;99.90;;;;;;5475100;26;19929;-65
2024/04/16 00:15:00;;;;;;;;;;;5.30;99.90;;;;;;5442189;26;19937;-65
2024/04/16 00:17:27;;;;;;;;;;;5.20;99.90;;;;;;5475916;26;20394;-65
2024/04/16 00:19:54;;;;;;;;;;;5.10;99.90;;;;;;5417715;26;19957;-65
2024/04/16 00:22:26;;;;;;;;;;;5.10;99.90;;;;;;5444471;26;20284;-65
2024/04/16 00:24:53;;;;;;;;;;;5.00;99.90;;;;;;5462071;26;20377;-65
2024/04/16 00:27:25;;;;;;;;;;;5.00;99.90;;;;;;5437888;26;19929;-65
2024/04/16 00:29:57;;;;;;;;;;;4.90;99.90;;;;;;5435645;26;20434;-65
2024/04/16 00:32:24;;;;;;;;;;;4.90;99.90;;;;;;5443029;26;19929;-65
2024/04/16 00:34:50;;;;;;;;;;;4.90;99.90;;;;;;5442133;26;19928;-65
2024/04/16 00:37:17;;;;;;;;;;;5.00;99.90;;;;;;5443558;26;19932;-65
2024/04/16 00:39:46;;;;;;;;;;;4.90;99.90;;;;;;5444263;26;19948;-65
2024/04/16 00:42:13;;;;;;;;;;;4.80;99.90;;;;;;5442095;26;19936;-65
2024/04/16 00:44:39;;;;;;;;;;;4.80;99.90;;;;;;5444385;26;20379;-65
2024/04/16 00:47:07;;;;;;;;;;;4.90;99.90;;;;;;5445254;26;19956;-65
2024/04/16 00:49:35;;;;;;;;;;;4.80;99.90;;;;;;5437016;26;19960;-65
2024/04/16 00:52:02;;;;;;;;;;;4.70;99.90;;;;;;5476083;26;19928;-66
2024/04/16 00:54:29;;;;;;;;;;;4.70;99.90;;;;;;5442792;26;20298;-66
2024/04/16 00:57:03;;;;;;;;;;;4.70;99.90;;;;;;5442657;26;19933;-66
2024/04/16 00:59:31;;;;;;;;;;;4.70;99.90;;;;;;5436386;26;19928;-65
2024/04/16 01:01:58;;;;;;;;;;;4.70;99.90;;;;;;5412650;26;19932;-66
2024/04/16 01:04:25;;;;;;;;;;;4.60;99.90;;;;;;5443485;26;19957;-66
2024/04/16 01:06:52;;;;;;;;;;;4.60;99.90;;;;;;5440989;26;19936;-66
2024/04/16 01:09:19;;;;;;;;;;;4.50;99.90;;;;;;5440845;26;19936;-66
2024/04/16 01:11:46;;;;;;;;;;;4.40;99.90;;;;;;5440354;26;19957;-66
2024/04/16 01:14:13;;;;;;;;;;;4.30;99.90;;;;;;5442775;26;19957;-66
2024/04/16 01:16:40;;;;;;;;;;;4.30;99.90;;;;;;5476776;26;19939;-66
2024/04/16 01:19:07;;;;;;;;;;;4.20;99.90;;;;;;5441919;26;19940;-66
2024/04/16 01:21:34;;;;;;;;;;;4.20;99.90;;;;;;5438789;26;19943;-66
2024/04/16 01:24:01;;;;;;;;;;;4.20;99.90;;;;;;5444130;26;19928;-66
2024/04/16 01:26:28;;;;;;;;;;;4.10;99.90;;;;;;5436787;26;20380;-66
2024/04/16 01:28:54;;;;;;;;;;;4.10;99.90;;;;;;5475570;26;20393;-66
2024/04/16 01:31:22;;;;;;;;;;;4.10;99.90;;;;;;5438133;26;19936;-66
2024/04/16 01:33:49;;;;;;;;;;;4.10;99.90;;;;;;5444803;26;20320;-66
2024/04/16 01:36:16;;;;;;;;;;;4.00;99.90;;;;;;5440605;26;19998;-66
2024/04/16 01:38:43;;;;;;;;;;;3.90;99.90;;;;;;5410724;26;20273;-66
2024/04/16 01:41:11;;;;;;;;;;;3.90;99.90;;;;;;5462067;26;19948;-66
2024/04/16 01:43:38;;;;;;;;;;;3.90;99.90;;;;;;5441622;26;19929;-66
2024/04/16 01:46:05;;;;;;;;;;;3.90;99.90;;;;;;5437109;26;19928;-66
2024/04/16 01:48:32;;;;;;;;;;;3.90;99.90;;;;;;5444982;26;19940;-66
2024/04/16 01:50:59;;;;;;;;;;;3.90;99.90;;;;;;5441558;26;19940;-66
2024/04/16 01:53:30;;;;;;;;;;;4.00;99.90;;;;;;5436135;26;20396;-66
2024/04/16 01:56:00;;;;;;;;;;;3.90;99.90;;;;;;5440365;26;19936;-66
2024/04/16 01:58:27;;;;;;;;;;;3.90;99.90;;;;;;5437851;26;20329;-66
2024/04/16 02:00:57;;;;;;;;;;;3.90;99.90;;;;;;5446451;26;19928;-66
2024/04/16 02:03:24;;;;;;;;;;;3.90;99.90;;;;;;5442101;26;19937;-67
2024/04/16 02:05:51;;;;;;;;;;;3.80;99.90;;;;;;5446685;26;20380;-66
2024/04/16 02:08:18;;;;;;;;;;;3.80;99.90;;;;;;5441129;26;19929;-66
2024/04/16 02:10:55;;;;;;;;;;;3.90;99.90;;;;;;5442469;26;19968;-66
2024/04/16 02:13:21;;;;;;;;;;;3.80;99.90;;;;;;5445987;26;19935;-66
2024/04/16 02:15:48;;;;;;;;;;;3.80;99.90;;;;;;5444685;26;19934;-66
2024/04/16 02:18:15;;;;;;;;;;;3.80;99.90;;;;;;5439109;26;19937;-66
2024/04/16 02:20:43;;;;;;;;;;;3.70;99.90;;;;;;5445202;26;20405;-66
2024/04/16 02:23:14;;;;;;;;;;;3.60;99.90;;;;;;5443827;26;19936;-66
2024/04/16 02:25:48;;;;;;;;;;;3.60;99.90;;;;;;5445241;26;19970;-66
2024/04/16 02:28:15;;;;;;;;;;;3.60;99.90;;;;;;5447999;26;19939;-66
2024/04/16 02:30:42;;;;;;;;;;;3.50;99.90;;;;;;5470604;26;20377;-66
2024/04/16 02:33:10;;;;;;;;;;;3.50;99.90;;;;;;5479091;26;19928;-66
2024/04/16 02:35:36;;;;;;;;;;;3.50;99.90;;;;;;5441853;26;19960;-66
2024/04/16 02:38:03;;;;;;;;;;;3.40;99.90;;;;;;5442932;26;19932;-66
2024/04/16 02:40:30;;;;;;;;;;;3.40;99.90;;;;;;5439532;26;20362;-66
2024/04/16 02:42:57;;;;;;;;;;;3.50;99.90;;;;;;5446652;26;20315;-66
2024/04/16 02:45:24;;;;;;;;;;;3.40;99.90;;;;;;5443849;26;19961;-66
2024/04/16 02:47:51;;;;;;;;;;;3.50;99.90;;;;;;5448690;26;19929;-66
2024/04/16 02:50:17;;;;;;;;;;;3.40;99.90;;;;;;5443806;26;19936;-67
2024/04/16 02:52:44;;;;;;;;;;;3.40;99.90;;;;;;5446280;26;19929;-66
2024/04/16 02:55:11;;;;;;;;;;;3.40;99.90;;;;;;5443704;26;20371;-66
2024/04/16 02:57:38;;;;;;;;;;;3.30;99.90;;;;;;5442924;26;19930;-66
2024/04/16 03:00:05;;;;;;;;;;;3.30;99.90;;;;;;5447108;26;19977;-66
2024/04/16 03:02:32;;;;;;;;;;;3.20;99.90;;;;;;5444171;26;19953;-66
2024/04/16 03:05:04;;;;;;;;;;;3.20;99.90;;;;;;5442667;26;19939;-66
2024/04/16 03:07:30;;;;;;;;;;;3.20;99.90;;;;;;5448148;26;19997;-66
2024/04/16 03:09:57;;;;;;;;;;;3.10;99.90;;;;;;5445958;26;19932;-65
2024/04/16 03:12:24;;;;;;;;;;;3.10;99.90;;;;;;5445801;26;19944;-66
2024/04/16 03:14:51;;;;;;;;;;;3.20;99.90;;;;;;5448810;26;19980;-66
2024/04/16 03:17:19;;;;;;;;;;;3.20;99.90;;;;;;5447504;26;19928;-66
2024/04/16 03:19:45;;;;;;;;;;;3.20;99.90;;;;;;5452072;26;19935;-66
2024/04/16 03:22:17;;;;;;;;;;;3.20;99.90;;;;;;5443176;26;19936;-66
2024/04/16 03:24:44;;;;;;;;;;;3.10;99.90;;;;;;5448154;26;19932;-66
2024/04/16 03:27:11;;;;;;;;;;;3.10;99.90;;;;;;5445407;26;19936;-66
2024/04/16 03:29:38;;;;;;;;;;;3.00;99.90;;;;;;5444759;26;19939;-66
2024/04/16 03:32:04;;;;;;;;;;;3.00;99.90;;;;;;5442355;26;19997;-67
2024/04/16 03:34:31;;;;;;;;;;;2.90;99.90;;;;;;5442056;26;20271;-66
2024/04/16 03:37:00;;;;;;;;;;;2.90;99.90;;;;;;5441481;26;20380;-67
2024/04/16 03:39:32;;;;;;;;;;;2.90;99.90;;;;;;5441749;26;20380;-66
2024/04/16 03:41:59;;;;;;;;;;;2.90;99.90;;;;;;5445480;26;19964;-67
2024/04/16 03:44:30;;;;;;;;;;;2.90;99.90;;;;;;5445296;26;19974;-66
2024/04/16 03:46:57;;;;;;;;;;;2.90;99.90;;;;;;5447594;26;20457;-66
2024/04/16 03:49:24;;;;;;;;;;;3.00;99.90;;;;;;5442233;26;20393;-66
2024/04/16 03:51:51;;;;;;;;;;;2.90;99.90;;;;;;5445215;26;19929;-66
2024/04/16 03:54:18;;;;;;;;;;;2.90;99.90;;;;;;5477026;26;19964;-65
2024/04/16 03:56:44;;;;;;;;;;;3.00;99.90;;;;;;5443699;26;19929;-67
2024/04/16 04:02:19;;;;;;;;;;;3.00;99.90;;;;;;5445253;26;19935;-66
2024/04/16 04:04:46;;;;;;;;;;;3.00;99.90;;;;;;5443842;26;19929;-67
2024/04/16 04:07:13;;;;;;;;;;;3.00;99.90;;;;;;5438179;26;19935;-66
2024/04/16 04:09:40;;;;;;;;;;;2.90;99.90;;;;;;5446651;26;19997;-66
2024/04/16 04:12:07;;;;;;;;;;;3.00;99.90;;;;;;5447833;26;20345;-66
2024/04/16 04:14:34;;;;;;;;;;;3.00;99.90;;;;;;5439357;26;19929;-66
2024/04/16 04:17:01;;;;;;;;;;;2.90;99.90;;;;;;5446490;26;19956;-66
2024/04/16 04:19:27;;;;;;;;;;;2.90;99.90;;;;;;5441075;26;19929;-66
2024/04/16 04:21:54;;;;;;;;;;;2.90;99.90;;;;;;5441500;26;19932;-65
2024/04/16 04:24:21;;;;;;;;;;;2.90;99.90;;;;;;5438355;26;19952;-66
2024/04/16 04:26:48;;;;;;;;;;;2.80;99.90;;;;;;5441286;26;19936;-66
2024/04/16 04:29:15;;;;;;;;;;;2.80;99.90;;;;;;5468467;26;19936;-65
2024/04/16 04:31:42;;;;;;;;;;;2.80;99.90;;;;;;5438590;26;19984;-66
2024/04/16 04:34:08;;;;;;;;;;;2.80;99.90;;;;;;5442870;26;19929;-66
2024/04/16 04:36:35;;;;;;;;;;;2.80;99.90;;;;;;5466344;26;19940;-65
2024/04/16 04:39:02;;;;;;;;;;;2.90;99.90;;;;;;5430220;26;20337;-65
2024/04/16 04:41:29;;;;;;;;;;;2.90;99.90;;;;;;5433934;26;20735;-65
2024/04/16 04:43:56;;;;;;;;;;;2.90;99.90;;;;;;5425637;26;20269;-65
2024/04/16 04:46:23;;;;;;;;;;;2.90;99.90;;;;;;5423604;26;20515;-65
2024/04/16 04:48:50;;;;;;;;;;;2.90;99.90;;;;;;5445011;26;20380;-66
2024/04/16 04:51:17;;;;;;;;;;;2.90;99.90;;;;;;5430280;26;19940;-66
2024/04/16 04:53:43;;;;;;;;;;;2.90;99.90;;;;;;5416286;26;19935;-66
2024/04/16 04:56:10;;;;;;;;;;;3.00;99.90;;;;;;5425578;26;19936;-66
2024/04/16 04:58:39;;;;;;;;;;;3.00;99.90;;;;;;5436658;26;19941;-70
2024/04/16 05:01:06;;;;;;;;;;;3.10;99.90;;;;;;5426377;26;19965;-66
2024/04/16 05:03:32;;;;;;;;;;;3.10;99.90;;;;;;5436479;26;19960;-66
2024/04/16 05:05:59;;;;;;;;;;;3.10;99.90;;;;;;5431703;26;19929;-66
2024/04/16 05:08:28;;;;;;;;;;;3.10;99.90;;;;;;5435794;26;19956;-66
2024/04/16 05:10:55;;;;;;;;;;;3.10;99.90;;;;;;5435668;26;19968;-65
2024/04/16 05:13:22;;;;;;;;;;;3.10;99.90;;;;;;5419860;26;19961;-65
2024/04/16 05:15:49;;;;;;;;;;;3.20;99.90;;;;;;5417285;26;19957;-66
2024/04/16 05:18:16;;;;;;;;;;;3.20;99.90;;;;;;5422376;26;20401;-66
2024/04/16 05:20:47;;;;;;;;;;;3.20;99.90;;;;;;5425891;26;19941;-66
2024/04/16 05:23:14;;;;;;;;;;;3.20;99.90;;;;;;5412919;26;19941;-66
2024/04/16 05:25:55;;;;;;;;;;;3.20;99.90;;;;;;5426272;26;19932;-66
2024/04/16 05:28:22;;;;;;;;;;;3.30;99.90;;;;;;5429736;26;19941;-65
2024/04/16 05:30:49;;;;;;;;;;;3.30;99.90;;;;;;5424037;26;20445;-66
2024/04/16 05:33:16;;;;;;;;;;;3.30;99.90;;;;;;5429981;26;19935;-65
2024/04/16 05:35:47;;;;;;;;;;;3.30;99.90;;;;;;5455152;26;19929;-65
2024/04/16 05:38:14;;;;;;;;;;;3.30;99.90;;;;;;5434373;26;19960;-66
2024/04/16 05:40:41;;;;;;;;;;;3.30;99.90;;;;;;5440423;26;19936;-66
2024/04/16 05:43:08;;;;;;;;;;;3.40;99.90;;;;;;5431319;26;19956;-66
2024/04/16 05:45:35;;;;;;;;;;;3.40;99.90;;;;;;5437000;26;19928;-66
2024/04/16 05:48:01;;;;;;;;;;;3.40;99.90;;;;;;5442497;26;19935;-66
2024/04/16 05:50:28;;;;;;;;;;;3.40;99.90;;;;;;5438439;26;20372;-65
2024/04/16 05:52:55;;;;;;;;;;;3.50;99.90;;;;;;5446821;26;20501;-66
2024/04/16 05:55:22;;;;;;;;;;;3.50;99.90;;;;;;5438652;26;19936;-66
2024/04/16 05:57:48;;;;;;;;;;;3.50;99.90;;;;;;5443110;26;19935;-65
2024/04/16 06:00:16;;;;;;;;;;;3.60;99.90;;;;;;5439094;26;20381;-65
2024/04/16 06:02:42;;;;;;;;;;;3.60;99.90;;;;;;5440548;26;19959;-65
2024/04/16 06:05:09;;;;;;;;;;;3.70;99.90;;;;;;5438423;26;19940;-65
2024/04/16 06:07:36;;;;;;;;;;;3.70;99.90;;;;;;5449010;26;20412;-66
2024/04/16 06:10:03;;;;;;;;;;;3.70;99.90;;;;;;5442887;26;19928;-64
2024/04/16 06:12:30;;;;;;;;;;;3.70;99.90;;;;;;5446398;26;19932;-64
2024/04/16 06:14:59;;;;;;;;;;;3.80;99.90;;;;;;5445584;26;19933;-63
2024/04/16 06:17:28;;;;;;;;;;;3.80;99.90;;;;;;5434941;26;19935;-63
2024/04/16 06:19:55;;;;;;;;;;;3.80;99.90;;;;;;5448891;26;19940;-63
2024/04/16 06:22:22;;;;;;;;;;;3.80;99.90;;;;;;5440198;26;20321;-63
2024/04/16 06:24:49;;;;;;;;;;;3.80;99.90;;;;;;5450648;26;19928;-63
2024/04/16 06:27:15;;;;;;;;;;;3.90;99.90;;;;;;5447998;26;19928;-64
2024/04/16 06:29:47;;;;;;;;;;;4.00;99.90;;;;;;5448985;26;19928;-63
2024/04/16 06:32:16;;;;;;;;;;;4.00;99.90;;;;;;5447826;26;19956;-63
2024/04/16 06:34:42;;;;;;;;;;;4.00;99.90;;;;;;5443140;26;19937;-63
2024/04/16 06:37:09;;;;;;;;;;;4.00;99.90;;;;;;5440299;26;19928;-64
2024/04/16 06:39:36;;;;;;;;;;;4.10;99.90;;;;;;5443146;26;20380;-64
2024/04/16 06:42:03;;;;;;;;;;;4.10;99.90;;;;;;5475941;26;19929;-63
2024/04/16 06:44:35;;;;;;;;;;;4.10;99.90;;;;;;5451704;26;19997;-63
2024/04/16 06:47:02;;;;;;;;;;;4.20;99.90;;;;;;5446763;26;20300;-63
2024/04/16 06:49:29;;;;;;;;;;;4.30;99.90;;;;;;5449700;26;19936;-63
2024/04/16 06:51:56;;;;;;;;;;;4.30;99.90;;;;;;5473549;26;19940;-63
2024/04/16 06:54:23;;;;;;;;;;;4.40;99.90;;;;;;5447651;26;19935;-63
2024/04/16 06:56:50;;;;;;;;;;;4.40;99.90;;;;;;5438321;26;19935;-64
2024/04/16 06:59:17;;;;;;;;;;;4.50;99.90;;;;;;5451618;26;19928;-63
2024/04/16 07:01:43;;;;;;;;;;;4.50;99.90;;;;;;5449580;26;20325;-64
2024/04/16 07:04:11;;;;;;;;;;;4.50;99.90;;;;;;5441894;26;19953;-63
2024/04/16 07:06:37;;;;;;;;;;;4.60;99.90;;;;;;5451569;26;19936;-64
2024/04/16 07:09:04;;;;;;;;;;;4.60;99.90;;;;;;5452313;26;20385;-63
2024/04/16 07:11:31;;;;;;;;;;;4.70;99.90;;;;;;5451104;26;19964;-64
2024/04/16 07:14:03;;;;;;;;;;;4.70;99.90;;;;;;5450777;26;20310;-63
2024/04/16 07:16:31;;;;;;;;;;;4.70;99.90;;;;;;5439486;26;19933;-63
2024/04/16 07:19:02;;;;;;;;;;;4.70;99.90;;;;;;5478352;26;19932;-63
2024/04/16 07:21:34;;;;;;;;;;;4.80;99.90;;;;;;5451526;26;20325;-63
2024/04/16 07:24:01;;;;;;;;;;;4.80;99.90;;;;;;5448778;26;19935;-63
2024/04/16 07:26:28;;;;;;;;;;;4.80;99.90;;;;;;5451265;26;19936;-64
2024/04/16 07:28:55;;;;;;;;;;;5.00;99.90;;;;;;5443967;26;19952;-63
2024/04/16 07:31:27;;;;;;;;;;;5.10;99.90;;;;;;5447959;26;19929;-63
2024/04/16 07:33:54;;;;;;;;;;;5.10;99.90;;;;;;5447568;26;19993;-63
2024/04/16 07:36:21;;;;;;;;;;;5.10;99.90;;;;;;5447751;26;20377;-64
2024/04/16 07:38:48;;;;;;;;;;;5.00;99.90;;;;;;5448507;26;20391;-63
2024/04/16 07:41:14;;;;;;;;;;;4.90;99.90;;;;;;5474755;26;19960;-63
2024/04/16 07:43:41;;;;;;;;;;;4.80;99.90;;;;;;5442487;26;19948;-64
2024/04/16 07:46:08;;;;;;;;;;;4.70;99.90;;;;;;5450695;26;19936;-64
2024/04/16 07:48:35;;;;;;;;;;;4.70;99.90;;;;;;5437015;26;20385;-64
2024/04/16 07:51:07;;;;;;;;;;;4.60;99.90;;;;;;5447928;26;19944;-63
2024/04/16 07:53:34;;;;;;;;;;;4.70;99.90;;;;;;5449497;26;20013;-64
2024/04/16 07:56:07;;;;;;;;;;;4.70;99.90;;;;;;5451235;26;19953;-63
2024/04/16 07:58:33;;;;;;;;;;;4.80;99.90;;;;;;5436743;26;19953;-63
2024/04/16 08:01:00;;;;;;;;;;;4.70;99.90;;;;;;5443619;26;19932;-63
2024/04/16 08:03:28;;;;;;;;;;;4.80;99.90;;;;;;5435936;26;20377;-63
2024/04/16 08:05:55;;;;;;;;;;;4.90;99.90;;;;;;5478284;26;19980;-63
2024/04/16 08:08:21;;;;;;;;;;;5.00;99.90;;;;;;5437044;26;19928;-63
2024/04/16 08:10:48;;;;;;;;;;;5.10;99.90;;;;;;5437876;26;19944;-63
2024/04/16 08:13:15;;;;;;;;;;;5.20;99.90;;;;;;5442067;26;19940;-63
2024/04/16 08:15:45;;;;;;;;;;;5.30;99.90;;;;;;5447698;26;20377;-63
2024/04/16 08:18:12;;;;;;;;;;;5.40;99.90;;;;;;5438420;26;20377;-63
2024/04/16 08:20:44;;;;;;;;;;;5.40;99.90;;;;;;5447482;26;20010;-63
2024/04/16 08:23:11;;;;;;;;;;;5.50;99.90;;;;;;5448799;26;19928;-63
2024/04/16 08:25:38;;;;;;;;;;;5.70;99.90;;;;;;5447539;26;19935;-63
2024/04/16 08:28:04;;;;;;;;;;;5.90;99.90;;;;;;5444185;26;19974;-63
2024/04/16 08:30:36;;;;;;;;;;;6.00;99.90;;;;;;5449880;26;19933;-63
2024/04/16 08:33:08;;;;;;;;;;;6.30;99.90;;;;;;5446009;26;19940;-63
2024/04/16 08:35:35;;;;;;;;;;;6.40;99.90;;;;;;5446061;26;19929;-63
2024/04/16 08:38:01;;;;;;;;;;;6.50;99.90;;;;;;5445077;26;19936;-63
2024/04/16 08:40:28;;;;;;;;;;;6.60;99.90;;;;;;5477566;26;20311;-63
2024/04/16 08:43:00;;;;;;;;;;;6.40;99.90;;;;;;5445539;26;19932;-63
2024/04/16 08:45:27;;;;;;;;;;;6.30;99.90;;;;;;5478679;26;19929;-63
2024/04/16 08:47:55;;;;;;;;;;;6.30;99.90;;;;;;5439164;26;20401;-63
2024/04/16 08:50:23;;;;;;;;;;;6.20;99.90;;;;;;5445695;26;20304;-63
2024/04/16 08:52:57;;;;;;;;;;;6.20;99.90;;;;;;5447572;26;20387;-63
2024/04/16 08:55:30;;;;;;;;;;;6.30;99.90;;;;;;5447545;26;20388;-63
2024/04/16 08:58:02;;;;;;;;;;;6.40;99.90;;;;;;5440784;26;19944;-63
2024/04/16 09:00:33;;;;;;;;;;;6.50;99.90;;;;;;5440197;26;19929;-63
2024/04/16 09:03:05;;;;;;;;;;;6.50;99.90;;;;;;5447847;26;19972;-63
2024/04/16 09:05:32;;;;;;;;;;;6.60;99.90;;;;;;5449478;26;19957;-63
2024/04/16 09:08:04;;;;;;;;;;;6.70;99.90;;;;;;5449910;26;19952;-63
2024/04/16 09:10:31;;;;;;;;;;;6.60;99.90;;;;;;5458157;26;20387;-65
2024/04/16 09:13:07;;;;;;;;;;;6.60;99.90;;;;;;5446823;26;19928;-65
2024/04/16 09:15:37;;;;;;;;;;;6.70;99.90;;;;;;5444987;26;19928;-65
2024/04/16 09:18:04;;;;;;;;;;;6.80;99.90;;;;;;5442360;26;20457;-65
2024/04/16 09:20:36;;;;;;;;;;;6.70;99.90;;;;;;5440843;26;20310;-65
2024/04/16 09:23:08;;;;;;;;;;;6.90;99.90;;;;;;5439083;26;19999;-65
2024/04/16 09:25:38;;;;;;;;;;;6.90;99.90;;;;;;5471080;26;19928;-65
2024/04/16 09:28:12;;;;;;;;;;;6.90;99.90;;;;;;5442793;26;19933;-65
2024/04/16 09:30:54;;;;;;;;;;;6.90;99.90;;;;;;5448555;26;20383;-65
2024/04/16 09:33:21;;;;;;;;;;;7.00;99.90;;;;;;5442419;26;19939;-65
2024/04/16 09:35:49;;;;;;;;;;;7.20;99.90;;;;;;5438731;26;19935;-65
2024/04/16 09:38:15;;;;;;;;;;;7.40;99.90;;;;;;5448385;26;19957;-65
2024/04/16 09:40:42;;;;;;;;;;;7.50;99.90;;;;;;5448208;26;19935;-65
2024/04/16 09:43:09;;;;;;;;;;;7.60;99.90;;;;;;5446028;26;19958;-65
2024/04/16 09:45:37;;;;;;;;;;;7.60;99.90;;;;;;5445457;26;19953;-65
2024/04/16 09:48:06;;;;;;;;;;;7.60;99.90;;;;;;5474261;26;19957;-65
2024/04/16 09:50:35;;;;;;;;;;;7.50;99.90;;;;;;5448201;26;19935;-65
2024/04/16 09:53:02;;;;;;;;;;;7.60;99.90;;;;;;5448339;26;19965;-65
2024/04/16 09:55:35;;;;;;;;;;;7.50;99.90;;;;;;5433580;26;19933;-65
2024/04/16 09:58:02;;;;;;;;;;;7.50;99.90;;;;;;5441434;26;19936;-65
2024/04/16 10:00:29;;;;;;;;;;;7.40;99.90;;;;;;5461842;26;20009;-65
2024/04/16 10:02:56;;;;;;;;;;;7.50;99.90;;;;;;5448276;26;19953;-65
2024/04/16 10:05:23;;;;;;;;;;;7.40;99.90;;;;;;5465465;26;19961;-65
2024/04/16 10:07:49;;;;;;;;;;;7.40;99.90;;;;;;5446090;26;19932;-65
2024/04/16 10:10:16;;;;;;;;;;;7.40;99.90;;;;;;5447519;26;19948;-65
2024/04/16 10:12:43;;;;;;;;;;;7.50;99.90;;;;;;5462754;26;19929;-65
2024/04/16 10:15:12;;;;;;;;;;;7.50;99.90;;;;;;5454890;26;19936;-64
2024/04/16 10:17:56;;;;;;;;;;;7.50;99.90;;;;;;5472743;26;19933;-65
2024/04/16 10:20:26;;;;;;;;;;;7.60;99.90;;;;;;5442102;26;19933;-65
2024/04/16 10:23:00;;;;;;;;;;;7.70;99.90;;;;;;5445764;26;19997;-65
2024/04/16 10:25:30;;;;;;;;;;;7.80;99.90;;;;;;5432976;26;19933;-65
2024/04/16 10:28:01;;;;;;;;;;;7.90;99.90;;;;;;5437404;26;20506;-65
2024/04/16 10:30:28;;;;;;;;;;;8.00;99.90;;;;;;5440971;26;20269;-65
2024/04/16 10:33:00;;;;;;;;;;;8.10;99.90;;;;;;5434399;26;20290;-64
2024/04/16 10:35:33;;;;;;;;;;;8.10;99.90;;;;;;5437122;26;19937;-64
2024/04/16 10:38:01;;;;;;;;;;;8.10;99.90;;;;;;5437610;26;20455;-65
2024/04/16 10:40:29;;;;;;;;;;;8.20;99.90;;;;;;5436772;26;19997;-64
2024/04/16 10:42:56;;;;;;;;;;;8.30;99.90;;;;;;5436285;26;19956;-65
2024/04/16 10:45:23;;;;;;;;;;;8.50;99.90;;;;;;5429916;26;19940;-65
2024/04/16 10:47:51;;;;;;;;;;;8.60;99.90;;;;;;5444404;26;20018;-65
2024/04/16 10:50:23;;;;;;;;;;;8.70;99.90;;;;;;5444369;26;19941;-65
2024/04/16 10:52:55;;;;;;;;;;;8.70;99.90;;;;;;5440934;26;19929;-62
2024/04/16 10:55:27;;;;;;;;;;;8.60;99.90;;;;;;5439872;26;19976;-62
2024/04/16 10:57:54;;;;;;;;;;;8.80;99.90;;;;;;5438483;26;20284;-63
2024/04/16 11:00:21;;;;;;;;;;;8.70;99.90;;;;;;5442046;26;19929;-63
2024/04/16 11:02:53;;;;;;;;;;;8.70;99.90;;;;;;5415184;26;19929;-62
2024/04/16 11:05:21;;;;;;;;;;;8.70;99.90;;;;;;5439880;26;19940;-63
2024/04/16 11:07:49;;;;;;;;;;;8.70;99.90;;;;;;5441235;26;19932;-62
2024/04/16 11:10:16;;;;;;;;;;;8.60;99.90;;;;;;5431719;26;19939;-62
2024/04/16 11:12:48;;;;;;;;;;;8.70;99.90;;;;;;5444458;26;19929;-62
2024/04/16 11:15:16;;;;;;;;;;;8.90;99.90;;;;;;5438086;26;19929;-62
2024/04/16 11:17:43;;;;;;;;;;;8.90;99.90;;;;;;5432190;26;19949;-62
2024/04/16 11:20:09;;;;;;;;;;;8.90;99.90;;;;;;5432328;26;19943;-62
2024/04/16 11:22:36;;;;;;;;;;;8.70;99.90;;;;;;5431354;26;19936;-63
2024/04/16 11:25:13;;;;;;;;;;;8.70;99.90;;;;;;5439387;26;19935;-62
2024/04/16 11:27:40;;;;;;;;;;;8.90;99.90;;;;;;5428037;26;19932;-63
2024/04/16 11:30:09;;;;;;;;;;;8.90;99.90;;;;;;5439569;26;19928;-63
2024/04/16 11:32:37;;;;;;;;;;;9.00;99.90;;;;;;5430370;26;19979;-63
2024/04/16 11:35:09;;;;;;;;;;;9.20;99.90;;;;;;5438079;26;19940;-63
2024/04/16 11:37:42;;;;;;;;;;;9.30;99.90;;;;;;5445133;26;19940;-62
2024/04/16 11:40:10;;;;;;;;;;;9.30;99.90;;;;;;5450368;26;20439;-62
2024/04/16 11:42:37;;;;;;;;;;;9.20;99.90;;;;;;5448306;26;19928;-63
2024/04/16 11:45:04;;;;;;;;;;;9.20;99.90;;;;;;5447067;26;20306;-62
2024/04/16 11:47:31;;;;;;;;;;;9.20;99.90;;;;;;5449967;26;19940;-62
2024/04/16 11:49:58;;;;;;;;;;;9.20;99.90;;;;;;5439511;26;19935;-62
2024/04/16 11:52:25;;;;;;;;;;;9.10;99.90;;;;;;5443826;26;19929;-62
2024/04/16 11:54:52;;;;;;;;;;;8.90;99.90;;;;;;5444052;26;20775;-62
2024/04/16 11:57:19;;;;;;;;;;;8.90;99.90;;;;;;5445573;26;19933;-62
2024/04/16 11:59:47;;;;;;;;;;;8.90;99.90;;;;;;5443891;26;19928;-62
2024/04/16 12:02:14;;;;;;;;;;;9.00;99.90;;;;;;5430758;26;19957;-62
2024/04/16 12:04:46;;;;;;;;;;;9.10;99.90;;;;;;5438932;26;19937;-61
2024/04/16 12:07:19;;;;;;;;;;;9.10;99.90;;;;;;5468237;26;20450;-61
2024/04/16 12:09:51;;;;;;;;;;;9.20;99.90;;;;;;5440141;26;19928;-62
2024/04/16 12:12:18;;;;;;;;;;;9.30;99.90;;;;;;5439307;26;19929;-61
2024/04/16 12:14:45;;;;;;;;;;;9.30;99.90;;;;;;5441485;26;19933;-62
2024/04/16 12:21:12;;;;;;;;;;;9.20;99.90;;;;;;5449819;26;19942;-64
2024/04/16 12:23:39;;;;;;;;;;;9.30;99.90;;;;;;5467972;26;20453;-64
2024/04/16 12:26:06;;;;;;;;;;;9.30;99.90;;;;;;5463036;26;20016;-64
2024/04/16 12:28:38;;;;;;;;;;;9.40;99.90;;;;;;5468247;26;19968;-64
2024/04/16 12:31:05;;;;;;;;;;;9.60;99.90;;;;;;5470011;26;19952;-64
2024/04/16 12:33:32;;;;;;;;;;;9.90;99.90;;;;;;5470192;26;19944;-64
2024/04/16 12:35:59;;;;;;;;;;;10.00;99.90;;;;;;5468965;26;19996;-64
2024/04/16 12:38:31;;;;;;;;;;;9.90;99.90;;;;;;5474925;26;20304;-64
2024/04/16 12:40:59;;;;;;;;;;;10.00;99.90;;;;;;5474855;26;19928;-61
2024/04/16 12:43:27;;;;;;;;;;;10.20;99.90;;;;;;5465137;26;20315;-62
2024/04/16 12:45:58;;;;;;;;;;;10.30;99.90;;;;;;5465068;26;19946;-62
2024/04/16 12:48:27;;;;;;;;;;;10.40;99.90;;;;;;5464036;26;20365;-62
2024/04/16 12:50:54;;;;;;;;;;;10.30;99.90;;;;;;5465906;26;19982;-61
2024/04/16 12:53:21;;;;;;;;;;;10.40;99.90;;;;;;5464097;26;19948;-62
2024/04/16 12:55:51;;;;;;;;;;;10.40;99.90;;;;;;5467210;26;19927;-61
2024/04/16 12:58:23;;;;;;;;;;;10.40;99.90;;;;;;5471042;26;19935;-62
2024/04/16 13:00:50;;;;;;;;;;;10.40;99.90;;;;;;5468927;26;19929;-61
2024/04/16 13:03:17;;;;;;;;;;;10.50;99.90;;;;;;5468878;26;19928;-69
2024/04/16 13:05:44;;;;;;;;;;;10.50;99.90;;;;;;5467842;26;19947;-61
2024/04/16 13:08:11;;;;;;;;;;;10.50;99.90;;;;;;5462311;26;19936;-61
2024/04/16 13:10:42;;;;;;;;;;;10.40;99.90;;;;;;5464856;26;19932;-63
2024/04/16 13:13:09;;;;;;;;;;;10.30;99.90;;;;;;5464913;26;19932;-61
2024/04/16 13:17:27;;;;;;;2.45;0.65;;;9.70;99.90;;;;;;5430392;21;20643;-67
2024/04/16 13:19:54;;;;;;;3.78;0.80;;;9.60;99.90;;;;;;5385681;26;20004;-67
2024/04/16 13:22:22;;;;;;;1.85;0.55;;;9.50;99.90;;;;;;5393164;26;20040;-66
2024/04/16 13:24:54;;;;;;;1.27;0.60;;;9.50;99.90;;;;;;5388738;26;20007;-67
2024/04/16 13:27:21;;;;;;;3.40;0.65;;;9.50;99.90;;;;;;5379392;26;20014;-65
2024/04/16 13:29:48;;;;;;;5.28;1.10;;;9.60;99.90;;;;;;5353576;26;20013;-66
2024/04/16 13:32:16;;;;;;;4.43;0.80;;;9.70;99.90;;;;;;5359701;26;20018;-66
2024/04/16 13:34:42;;;;;;;2.10;0.80;;;9.70;99.90;;;;;;5359146;26;20015;-66
2024/04/16 13:37:09;;;;;;;4.47;0.90;;;9.60;99.90;;;;;;5348842;26;20450;-65
2024/04/16 13:39:41;;;;;;;2.83;0.80;;;9.60;99.90;;;;;;5350638;26;20048;-66
2024/04/16 13:42:08;;;;;;;2.20;1.00;;;9.60;99.90;;;;;;5356385;26;20052;-66
2024/04/16 13:44:38;;;;;;;2.55;0.75;;;9.60;99.90;;;;;;5357155;26;20001;-66
2024/04/16 13:47:05;;;;;;;3.13;0.82;;;9.40;99.90;;;;;;5354442;26;20800;-66
2024/04/16 13:49:32;;;;;;;3.70;0.80;;;9.40;99.90;;;;;;5354537;26;20018;-65
2024/04/16 13:52:04;;;;;;;3.03;0.95;;;9.30;99.90;;;;;;5353999;26;20539;-66
2024/04/16 13:54:31;;;;;;;2.95;0.45;;;9.30;99.90;;;;;;5353014;26;20001;-65
2024/04/16 13:56:58;;;;;;;2.40;0.75;;;9.50;99.90;;;;;;5353855;26;20000;-66
2024/04/16 13:59:25;;;;;;;1.85;0.52;;;9.60;99.90;;;;;;5343316;26;20371;-66
2024/04/16 14:01:52;;;;;;;3.70;0.60;;;9.90;99.90;;;;;;5322099;26;20031;-66
2024/04/16 14:04:19;;;;;;;3.10;0.70;;;10.20;99.90;;;;;;5355997;26;20005;-65
2024/04/16 14:06:46;;;;;;;4.10;0.70;;;10.20;99.90;;;;;;5357306;26;20017;-66
2024/04/16 14:09:12;;;;;;;3.55;0.68;;;9.90;99.90;;;;;;5348332;26;20036;-66
2024/04/16 14:11:39;;;;;;;2.72;0.55;;;9.80;99.90;;;;;;5357560;26;20022;-65
2024/04/16 14:14:11;;;;;;;1.55;0.52;;;10.00;99.90;;;;;;5357765;26;20005;-66
2024/04/16 14:16:39;;;;;;;2.75;0.60;;;10.20;99.90;;;;;;5351425;26;20112;-65
2024/04/16 14:19:12;;;;;;;1.88;0.50;;;10.10;99.90;;;;;;5345715;26;20013;-65
2024/04/16 14:21:39;;;;;;;3.40;0.57;;;9.80;99.90;;;;;;5365378;26;20013;-65
2024/04/16 14:24:11;;;;;;;1.45;0.57;;;9.70;99.90;;;;;;5355984;26;20534;-66
2024/04/16 14:26:38;;;;;;;2.88;0.60;;;9.40;99.90;;;;;;5353681;26;20465;-66
2024/04/16 14:29:05;;;;;;;2.40;0.88;;;9.10;99.90;;;;;;5339705;26;20005;-66
2024/04/16 14:31:38;;;;;;;1.38;0.50;;;9.20;99.90;;;;;;5335236;26;20001;-65
2024/04/16 14:34:05;;;;;;;5.63;1.30;;;9.30;99.90;;;;;;5341114;26;20041;-66